createdAt,value
2023-03-27T00:01:57.563Z,97576.22
2023-03-27T00:04:26.313Z,97569.25
2023-03-27T00:06:55.139Z,97576.44
2023-03-27T00:09:23.984Z,97579.38
2023-03-27T00:11:52.873Z,97576.94
2023-03-27T00:14:21.942Z,97572.13
2023-03-27T00:16:52.481Z,97572.91
2023-03-27T00:19:21.802Z,97569.44
2023-03-27T00:21:50.457Z,97573.66
2023-03-27T00:24:19.123Z,97571.56
2023-03-27T00:26:47.797Z,97575.28
2023-03-27T00:29:16.930Z,97565.34
2023-03-27T00:31:46.323Z,97576.53
2023-03-27T00:34:16.632Z,97577.22
2023-03-27T00:36:51.125Z,97581.44
2023-03-27T00:39:20.603Z,97582.41
2023-03-27T00:41:49.695Z,97584.47
2023-03-27T00:44:25.614Z,97589.91
2023-03-27T00:46:57.213Z,97588.63
2023-03-27T00:49:32.197Z,97586.22
2023-03-27T00:52:04.250Z,97586.19
2023-03-27T00:54:40.285Z,97586.38
2023-03-27T00:57:14.318Z,97591.88
2023-03-27T00:59:47.747Z,97596.16
2023-03-27T01:02:18.520Z,97632.47
2023-03-27T01:04:51.414Z,97647.41
2023-03-27T01:07:21.084Z,97649.34
2023-03-27T01:09:50.702Z,97654.19
2023-03-27T01:12:35.866Z,97664.03
2023-03-27T01:15:22.393Z,97669.19
2023-03-27T01:18:11.529Z,97681.91
2023-03-27T01:21:51.960Z,97685.34
2023-03-27T01:25:13.167Z,97700.53
2023-03-27T01:28:16.171Z,97703.78
2023-03-27T01:30:55.659Z,97711.50
2023-03-27T01:34:30.974Z,97724.72
2023-03-27T01:37:26.156Z,97721.84
2023-03-27T01:40:07.981Z,97734.09
2023-03-27T01:42:43.972Z,97744.47
2023-03-27T01:45:20.546Z,97763.78
2023-03-27T01:47:59.830Z,97771.50
2023-03-27T01:50:39.239Z,97776.13
2023-03-27T01:53:16.707Z,97786.25
2023-03-27T01:55:54.785Z,97798.16
2023-03-27T01:58:31.059Z,97805.63
2023-03-27T02:01:04.188Z,97799.69
2023-03-27T02:03:38.198Z,97807.47
2023-03-27T02:06:15.631Z,97806.28
2023-03-27T02:08:51.168Z,97810.31
2023-03-27T02:11:27.345Z,97822.13
2023-03-27T02:14:03.899Z,97823.38
2023-03-27T02:16:42.677Z,97828.97
2023-03-27T02:19:20.871Z,97830.72
2023-03-27T02:21:49.649Z,97845.97
2023-03-27T02:24:19.913Z,97844.03
2023-03-27T02:27:01.948Z,97845.28
2023-03-27T02:29:59.546Z,97859.28
2023-03-27T02:32:48.734Z,97862.44
2023-03-27T02:35:41.057Z,97870.53
2023-03-27T02:38:19.806Z,97882.91
2023-03-27T02:42:07.561Z,97895.13
2023-03-27T02:44:51.878Z,97894.25
2023-03-27T02:47:29.733Z,97897.28
2023-03-27T02:50:07.360Z,97913.25
2023-03-27T02:52:44.773Z,97918.25
2023-03-27T02:55:19.221Z,97920.63
2023-03-27T02:57:56.599Z,97928.59
2023-03-27T03:00:43.792Z,97923.22
2023-03-27T03:03:40.196Z,97938.72
2023-03-27T03:06:20.005Z,97940.19
2023-03-27T03:08:50.473Z,97952.56
2023-03-27T03:11:19.529Z,97960.81
2023-03-27T03:13:48.412Z,97959.50
2023-03-27T03:16:18.550Z,97976.03
2023-03-27T03:18:47.405Z,97977.50
2023-03-27T03:21:16.528Z,97980.69
2023-03-27T03:23:58.227Z,97983.38
2023-03-27T03:26:30.066Z,97986.13
2023-03-27T03:29:01.373Z,97991.75
2023-03-27T03:31:44.601Z,98001.78
2023-03-27T03:34:16.216Z,98008.47
2023-03-27T03:36:49.386Z,98008.41
2023-03-27T03:39:23.968Z,98014.56
2023-03-27T03:41:52.817Z,98019.94
2023-03-27T03:44:21.618Z,98033.53
2023-03-27T03:46:51.862Z,98041.41
2023-03-27T03:49:23.044Z,98044.41
2023-03-27T03:52:04.318Z,98047.69
2023-03-27T03:54:34.620Z,98045.91
2023-03-27T03:57:05.349Z,98058.66
2023-03-27T03:59:35.988Z,98064.13
2023-03-27T04:02:38.396Z,98067.47
2023-03-27T04:05:13.106Z,98070.00
2023-03-27T04:07:42.704Z,98076.16
2023-03-27T04:10:22.205Z,98090.41
2023-03-27T04:12:51.845Z,98106.94
2023-03-27T04:15:27.525Z,98110.75
2023-03-27T04:18:10.094Z,98112.03
2023-03-27T04:20:40.355Z,98110.00
2023-03-27T04:23:14.041Z,98113.09
2023-03-27T04:25:43.374Z,98114.13
2023-03-27T04:28:16.934Z,98111.63
2023-03-27T04:30:51.585Z,98112.50
2023-03-27T04:33:46.896Z,98114.78
2023-03-27T04:36:34.601Z,98121.75
2023-03-27T04:39:10.669Z,98129.31
2023-03-27T04:41:39.903Z,98131.31
2023-03-27T04:44:10.124Z,98147.50
2023-03-27T04:46:43.236Z,98149.53
2023-03-27T04:49:16.295Z,98148.84
2023-03-27T04:52:00.000Z,98149.28
2023-03-27T04:54:31.929Z,98162.91
2023-03-27T04:57:03.562Z,98174.59
2023-03-27T04:59:33.314Z,98168.50
2023-03-27T05:02:21.432Z,98178.66
2023-03-27T05:04:58.805Z,98187.88
2023-03-27T05:07:33.472Z,98186.47
2023-03-27T05:10:04.128Z,98197.66
2023-03-27T05:12:34.196Z,98200.69
2023-03-27T05:15:06.387Z,98205.63
2023-03-27T05:17:44.376Z,98205.13
2023-03-27T05:20:17.898Z,98215.59
2023-03-27T05:22:47.537Z,98218.22
2023-03-27T05:25:25.693Z,98224.09
2023-03-27T05:27:55.606Z,98224.28
2023-03-27T05:30:27.979Z,98233.25
2023-03-27T05:33:21.090Z,98229.13
2023-03-27T05:35:53.446Z,98230.34
2023-03-27T05:38:24.722Z,98237.53
2023-03-27T05:41:07.199Z,98240.53
2023-03-27T05:43:41.140Z,98245.44
2023-03-27T05:46:10.124Z,98251.81
2023-03-27T05:48:39.440Z,98248.34
2023-03-27T05:51:10.613Z,98252.00
2023-03-27T05:53:40.551Z,98254.88
2023-03-27T05:56:32.237Z,98262.63
2023-03-27T05:59:03.961Z,98272.38
2023-03-27T06:01:36.638Z,98277.34
2023-03-27T06:04:06.366Z,98278.97
2023-03-27T06:06:53.127Z,98296.53
2023-03-27T06:09:23.002Z,98300.75
2023-03-27T06:12:16.231Z,98299.75
2023-03-27T06:14:45.405Z,98301.38
2023-03-27T06:17:28.594Z,98302.81
2023-03-27T06:20:11.991Z,98317.94
2023-03-27T06:22:48.429Z,98309.00
2023-03-27T06:25:21.369Z,98318.16
2023-03-27T06:27:51.809Z,98321.81
2023-03-27T06:30:24.815Z,98321.44
2023-03-27T06:33:15.212Z,98334.22
2023-03-27T06:35:53.035Z,98333.19
2023-03-27T06:38:33.158Z,98338.66
2023-03-27T06:41:04.428Z,98341.34
2023-03-27T06:43:53.299Z,98350.09
2023-03-27T06:46:45.193Z,98353.97
2023-03-27T06:49:18.308Z,98356.22
2023-03-27T06:51:47.563Z,98362.91
2023-03-27T06:54:19.032Z,98367.78
2023-03-27T06:56:51.970Z,98368.84
2023-03-27T06:59:24.397Z,98379.88
2023-03-27T07:01:58.964Z,98381.53
2023-03-27T07:04:27.744Z,98394.75
2023-03-27T07:07:26.247Z,98405.19
2023-03-27T07:09:56.358Z,98403.13
2023-03-27T07:12:28.050Z,98407.03
2023-03-27T07:14:57.251Z,98416.00
2023-03-27T07:17:41.852Z,98415.59
2023-03-27T07:20:17.357Z,98420.91
2023-03-27T07:22:46.966Z,98434.75
2023-03-27T07:25:37.144Z,98433.94
2023-03-27T07:28:13.315Z,98438.84
2023-03-27T07:30:42.629Z,98437.00
2023-03-27T07:33:13.044Z,98445.75
2023-03-27T07:35:43.669Z,98446.97
2023-03-27T07:38:31.308Z,98447.38
2023-03-27T07:41:22.873Z,98445.72
2023-03-27T07:44:17.473Z,98453.47
2023-03-27T07:46:56.778Z,98464.06
2023-03-27T07:49:40.049Z,98468.16
2023-03-27T07:52:16.389Z,98464.50
2023-03-27T07:55:07.058Z,98468.56
2023-03-27T07:58:00.434Z,98468.97
2023-03-27T08:00:35.693Z,98468.75
2023-03-27T08:03:15.984Z,98472.03
2023-03-27T08:05:56.328Z,98478.34
2023-03-27T08:08:27.371Z,98478.97
2023-03-27T08:11:04.026Z,98476.31
2023-03-27T08:13:41.550Z,98474.22
2023-03-27T08:16:15.199Z,98478.31
2023-03-27T08:18:44.805Z,98483.19
2023-03-27T08:21:13.766Z,98494.59
2023-03-27T08:23:43.005Z,98505.03
2023-03-27T08:26:21.301Z,98503.41
2023-03-27T08:29:12.850Z,98499.75
2023-03-27T08:31:43.270Z,98505.06
2023-03-27T08:34:12.498Z,98496.25
2023-03-27T08:36:52.412Z,98507.22
2023-03-27T08:39:22.818Z,98505.53
2023-03-27T08:41:58.125Z,98500.31
2023-03-27T08:44:40.273Z,98508.44
2023-03-27T08:47:20.727Z,98511.38
2023-03-27T08:50:16.802Z,98507.69
2023-03-27T08:52:52.020Z,98514.72
2023-03-27T08:55:39.631Z,98513.34
2023-03-27T08:58:27.904Z,98503.13
2023-03-27T09:01:22.579Z,98513.97
2023-03-27T09:04:02.078Z,98506.19
2023-03-27T09:06:44.768Z,98512.66
2023-03-27T09:09:37.237Z,98518.69
2023-03-27T09:12:27.471Z,98528.66
2023-03-27T09:15:05.814Z,98526.66
2023-03-27T09:17:45.005Z,98535.81
2023-03-27T09:20:24.559Z,98533.59
2023-03-27T09:23:03.531Z,98538.13
2023-03-27T09:25:58.071Z,98541.78
2023-03-27T09:28:51.429Z,98544.63
2023-03-27T09:31:31.344Z,98533.59
2023-03-27T09:34:11.283Z,98535.22
2023-03-27T09:36:40.899Z,98546.78
2023-03-27T09:39:17.478Z,98556.50
2023-03-27T09:41:52.268Z,98564.66
2023-03-27T09:44:26.886Z,98564.75
2023-03-27T09:47:08.114Z,98573.22
2023-03-27T09:49:44.824Z,98588.81
2023-03-27T09:52:37.810Z,98595.19
2023-03-27T09:55:26.992Z,98589.72
2023-03-27T09:58:02.218Z,98593.63
2023-03-27T10:00:35.803Z,98582.16
2023-03-27T10:03:19.080Z,98581.56
2023-03-27T10:06:07.797Z,98573.50
2023-03-27T10:08:50.485Z,98577.97
2023-03-27T10:11:29.446Z,98561.88
2023-03-27T10:14:17.661Z,98560.75
2023-03-27T10:16:48.233Z,98567.66
2023-03-27T10:19:28.809Z,98588.72
2023-03-27T10:22:14.323Z,98584.00
2023-03-27T10:24:48.053Z,98585.38
2023-03-27T10:27:33.568Z,98581.09
2023-03-27T10:30:30.052Z,98584.06
2023-03-27T10:33:32.375Z,98589.78
2023-03-27T10:36:25.768Z,98600.31
2023-03-27T10:39:02.147Z,98611.53
2023-03-27T10:41:42.742Z,98603.75
2023-03-27T10:44:21.875Z,98610.56
2023-03-27T10:46:55.757Z,98593.06
2023-03-27T10:49:37.803Z,98607.16
2023-03-27T10:52:22.606Z,98618.94
2023-03-27T10:55:56.627Z,98625.47
2023-03-27T10:58:34.054Z,98625.69
2023-03-27T11:01:12.422Z,98622.00
2023-03-27T11:03:55.148Z,98619.16
2023-03-27T11:06:31.776Z,98643.81
2023-03-27T11:09:12.113Z,98636.31
2023-03-27T11:11:59.286Z,98636.81
2023-03-27T11:14:39.998Z,98647.63
2023-03-27T11:17:19.622Z,98631.56
2023-03-27T11:20:08.537Z,98646.44
2023-03-27T11:23:06.718Z,98648.63
2023-03-27T11:25:50.575Z,98642.06
2023-03-27T11:28:36.824Z,98646.06
2023-03-27T11:31:14.633Z,98647.81
2023-03-27T11:33:53.626Z,98649.13
2023-03-27T11:36:37.716Z,98644.97
2023-03-27T11:39:27.312Z,98648.72
2023-03-27T11:42:01.571Z,98652.84
2023-03-27T11:44:32.190Z,98659.94
2023-03-27T11:47:41.020Z,98661.66
2023-03-27T11:50:26.590Z,98659.44
2023-03-27T11:53:25.218Z,98666.91
2023-03-27T11:56:38.781Z,98660.50
2023-03-27T12:00:06.086Z,98664.13
2023-03-27T12:03:40.302Z,98662.97
2023-03-27T12:06:22.574Z,98674.00
2023-03-27T12:09:27.120Z,98686.94
2023-03-27T12:12:47.885Z,98676.97
2023-03-27T12:15:44.781Z,98661.72
2023-03-27T12:18:36.103Z,98656.03
2023-03-27T12:21:24.140Z,98651.09
2023-03-27T12:24:49.820Z,98656.81
2023-03-27T12:28:06.746Z,98663.63
2023-03-27T12:30:57.591Z,98680.91
2023-03-27T12:33:49.838Z,98675.19
2023-03-27T12:36:24.463Z,98667.00
2023-03-27T12:38:55.855Z,98672.00
2023-03-27T12:41:34.068Z,98676.94
2023-03-27T12:44:15.400Z,98676.44
2023-03-27T12:47:21.651Z,98659.06
2023-03-27T12:50:02.636Z,98657.91
2023-03-27T12:52:41.030Z,98659.22
2023-03-27T12:55:36.886Z,98659.50
2023-03-27T12:58:35.288Z,98656.53
2023-03-27T13:01:52.216Z,98661.81
2023-03-27T13:05:26.275Z,98671.56
2023-03-27T13:08:26.367Z,98666.63
2023-03-27T13:11:21.717Z,98672.06
2023-03-27T13:14:43.034Z,98693.91
2023-03-27T13:17:45.469Z,98713.53
2023-03-27T13:20:32.346Z,98709.66
2023-03-27T13:23:26.837Z,98717.06
2023-03-27T13:26:24.987Z,98724.44
2023-03-27T13:28:57.914Z,98713.63
2023-03-27T13:32:03.650Z,98727.25
2023-03-27T13:35:09.856Z,98711.25
2023-03-27T13:37:58.248Z,98709.31
2023-03-27T13:40:46.248Z,98706.47
2023-03-27T13:43:26.098Z,98710.66
2023-03-27T13:46:06.544Z,98709.13
2023-03-27T13:49:34.381Z,98707.19
2023-03-27T13:52:52.998Z,98708.91
2023-03-27T13:56:21.118Z,98706.56
2023-03-27T13:59:52.687Z,98701.41
2023-03-27T14:03:10.865Z,98694.31
2023-03-27T14:06:52.396Z,98691.38
2023-03-27T14:09:43.273Z,98696.53
2023-03-27T14:12:31.170Z,98696.41
2023-03-27T14:15:30.071Z,98714.63
2023-03-27T14:18:49.386Z,98719.16
2023-03-27T14:21:35.730Z,98722.22
2023-03-27T14:24:25.647Z,98711.38
2023-03-27T14:27:08.431Z,98705.84
2023-03-27T14:29:38.370Z,98718.34
2023-03-27T14:32:13.798Z,98757.25
2023-03-27T14:36:05.633Z,98791.88
2023-03-27T14:38:38.421Z,98785.47
2023-03-27T14:41:21.332Z,98806.91
2023-03-27T14:44:03.954Z,98820.63
2023-03-27T14:46:36.420Z,98821.69
2023-03-27T14:49:19.426Z,98829.88
2023-03-27T14:52:12.220Z,98840.69
2023-03-27T14:57:41.425Z,98843.94
2023-03-27T15:00:20.342Z,98840.88
2023-03-27T15:02:52.848Z,98832.50
2023-03-27T15:05:23.651Z,98820.25
2023-03-27T15:08:01.673Z,98829.22
2023-03-27T15:10:56.744Z,98825.84
2023-03-27T15:13:52.776Z,98817.31
2023-03-27T15:16:36.131Z,98818.53
2023-03-27T15:19:12.396Z,98819.38
2023-03-27T15:22:01.361Z,98824.94
2023-03-27T15:24:43.526Z,98826.75
2023-03-27T15:27:21.811Z,98819.44
2023-03-27T15:29:57.963Z,98828.84
2023-03-27T15:32:42.238Z,98837.63
2023-03-27T15:35:18.101Z,98836.19
2023-03-27T15:37:47.530Z,98841.09
2023-03-27T15:40:43.216Z,98827.63
2023-03-27T15:43:24.782Z,98836.41
2023-03-27T15:46:04.281Z,98837.03
2023-03-27T15:48:40.425Z,98843.97
2023-03-27T15:51:31.676Z,98848.91
2023-03-27T15:54:20.660Z,98847.66
2023-03-27T15:56:49.510Z,98856.66
2023-03-27T15:59:18.765Z,98861.56
2023-03-27T16:01:53.575Z,98867.69
2023-03-27T16:04:28.363Z,98860.31
2023-03-27T16:07:10.948Z,98864.00
2023-03-27T16:09:52.213Z,98857.50
2023-03-27T16:12:28.318Z,98866.47
2023-03-27T16:14:58.870Z,98867.69
2023-03-27T16:17:34.925Z,98858.28
2023-03-27T16:20:37.470Z,98866.25
2023-03-27T16:23:06.412Z,98869.72
2023-03-27T16:25:35.543Z,98868.50
2023-03-27T16:28:04.408Z,98870.56
2023-03-27T16:30:36.200Z,98873.41
2023-03-27T16:33:15.754Z,98884.88
2023-03-27T16:35:47.579Z,98885.06
2023-03-27T16:38:17.233Z,98887.72
2023-03-27T16:40:46.867Z,98882.81
2023-03-27T16:43:16.161Z,98888.34
2023-03-27T16:45:45.984Z,98884.84
2023-03-27T16:48:15.009Z,98888.53
2023-03-27T16:50:45.316Z,98891.19
2023-03-27T16:53:14.380Z,98895.47
2023-03-27T16:55:44.782Z,98910.41
2023-03-27T16:58:13.799Z,98918.81
2023-03-27T17:00:42.750Z,98922.25
2023-03-27T17:03:11.596Z,98933.72
2023-03-27T17:05:44.134Z,98924.53
2023-03-27T17:08:18.872Z,98939.63
2023-03-27T17:10:47.625Z,98934.13
2023-03-27T17:13:16.511Z,98945.72
2023-03-27T17:15:45.314Z,98941.22
2023-03-27T17:18:14.096Z,98948.59
2023-03-27T17:20:43.024Z,98952.66
2023-03-27T17:23:15.198Z,98957.78
2023-03-27T17:25:45.572Z,98955.31
2023-03-27T17:28:15.747Z,98961.44
2023-03-27T17:30:56.556Z,98957.16
2023-03-27T17:33:36.703Z,98960.81
2023-03-27T17:36:12.381Z,98957.16
2023-03-27T17:38:43.217Z,98965.19
2023-03-27T17:41:13.466Z,98963.34
2023-03-27T17:43:42.413Z,98968.44
2023-03-27T17:46:13.858Z,98976.81
2023-03-27T17:48:44.186Z,99024.22
2023-03-27T17:51:13.033Z,99035.22
2023-03-27T17:53:44.139Z,99027.78
2023-03-27T17:56:12.924Z,99030.09
2023-03-27T17:58:51.743Z,99041.81
2023-03-27T18:01:26.211Z,99039.06
2023-03-27T18:04:11.501Z,99049.88
2023-03-27T18:06:46.846Z,99046.56
2023-03-27T18:09:17.599Z,99042.72
2023-03-27T18:11:47.131Z,99043.13
2023-03-27T18:14:16.105Z,99044.53
2023-03-27T18:16:45.399Z,99051.28
2023-03-27T18:19:14.662Z,99056.06
2023-03-27T18:21:43.849Z,99062.50
2023-03-27T18:24:13.058Z,99072.97
2023-03-27T18:26:43.504Z,99075.91
2023-03-27T18:29:12.721Z,99080.81
2023-03-27T18:31:42.975Z,99085.09
2023-03-27T18:34:11.913Z,99077.78
2023-03-27T18:36:41.119Z,99073.41
2023-03-27T18:39:11.623Z,99073.00
2023-03-27T18:41:40.909Z,99069.19
2023-03-27T18:44:12.627Z,99066.88
2023-03-27T18:46:45.736Z,99065.97
2023-03-27T18:49:24.088Z,99061.53
2023-03-27T18:51:57.087Z,99063.38
2023-03-27T18:54:27.109Z,99061.13
2023-03-27T18:56:56.161Z,99058.06
2023-03-27T18:59:27.128Z,99065.22
2023-03-27T19:01:55.967Z,99055.38
2023-03-27T19:04:26.285Z,99061.13
2023-03-27T19:06:55.250Z,99051.34
2023-03-27T19:09:34.407Z,99061.75
2023-03-27T19:12:10.839Z,99065.41
2023-03-27T19:15:06.600Z,99069.34
2023-03-27T19:18:02.746Z,99063.66
2023-03-27T19:20:51.814Z,99056.75
2023-03-27T19:23:49.802Z,99058.59
2023-03-27T19:26:22.206Z,99066.31
2023-03-27T19:28:50.990Z,99062.53
2023-03-27T19:31:21.650Z,99071.94
2023-03-27T19:33:50.431Z,99062.44
2023-03-27T19:36:19.264Z,99069.03
2023-03-27T19:38:48.425Z,99066.56
2023-03-27T19:41:17.356Z,99070.28
2023-03-27T19:43:46.540Z,99069.13
2023-03-27T19:46:16.863Z,99072.09
2023-03-27T19:48:49.758Z,99066.66
2023-03-27T19:51:26.932Z,99077.53
2023-03-27T19:53:56.196Z,99078.28
2023-03-27T19:56:27.429Z,99076.91
2023-03-27T19:58:56.313Z,99075.63
2023-03-27T20:01:28.416Z,99076.28
2023-03-27T20:03:59.746Z,99082.00
2023-03-27T20:06:34.137Z,99080.44
2023-03-27T20:09:02.943Z,99091.78
2023-03-27T20:11:32.114Z,99091.84
2023-03-27T20:14:22.196Z,99082.97
2023-03-27T20:16:52.289Z,99073.97
2023-03-27T20:19:28.226Z,99083.34
2023-03-27T20:21:59.692Z,99075.97
2023-03-27T20:24:29.047Z,99078.19
2023-03-27T20:27:02.250Z,99073.25
2023-03-27T20:29:46.313Z,99076.91
2023-03-27T20:32:15.438Z,99075.84
2023-03-27T20:34:48.941Z,99073.13
2023-03-27T20:37:18.287Z,99069.59
2023-03-27T20:39:52.050Z,99081.44
2023-03-27T20:42:23.288Z,99073.31
2023-03-27T20:44:58.512Z,99070.47
2023-03-27T20:47:27.433Z,99079.84
2023-03-27T20:49:59.050Z,99084.06
2023-03-27T20:52:28.540Z,99076.13
2023-03-27T20:54:57.257Z,99077.88
2023-03-27T20:57:26.282Z,99083.44
2023-03-27T20:59:55.481Z,99083.44
2023-03-27T21:02:24.278Z,99076.03
2023-03-27T21:04:53.049Z,99073.38
2023-03-27T21:07:23.527Z,99076.66
2023-03-27T21:09:53.245Z,99070.41
2023-03-27T21:12:21.915Z,99071.00
2023-03-27T21:14:50.828Z,99068.56
2023-03-27T21:17:19.640Z,99068.34
2023-03-27T21:19:48.301Z,99072.22
2023-03-27T21:22:17.237Z,99066.56
2023-03-27T21:24:47.444Z,99060.81
2023-03-27T21:27:17.277Z,99065.19
2023-03-27T21:29:45.991Z,99060.63
2023-03-27T21:32:14.824Z,99056.78
2023-03-27T21:34:43.603Z,99062.09
2023-03-27T21:37:12.400Z,99060.44
2023-03-27T21:39:41.188Z,99059.03
2023-03-27T21:42:11.913Z,99062.03
2023-03-27T21:44:40.694Z,99057.53
2023-03-27T21:47:09.383Z,99058.38
2023-03-27T21:49:38.176Z,99049.97
2023-03-27T21:52:07.548Z,99065.03
2023-03-27T21:54:36.566Z,99063.22
2023-03-27T21:57:05.766Z,99066.31
2023-03-27T21:59:36.205Z,99060.75
2023-03-27T22:02:04.971Z,99062.88
2023-03-27T22:04:33.832Z,99058.25
2023-03-27T22:07:02.826Z,99073.56
2023-03-27T22:09:31.720Z,99062.72
2023-03-27T22:12:00.514Z,99059.94
2023-03-27T22:14:29.252Z,99055.94
2023-03-27T22:16:59.423Z,99054.44
2023-03-27T22:19:28.223Z,99056.44
2023-03-27T22:21:57.618Z,99054.06
2023-03-27T22:24:26.428Z,99046.38
2023-03-27T22:26:55.634Z,99057.03
2023-03-27T22:29:24.449Z,99052.75
2023-03-27T22:31:53.161Z,99052.88
2023-03-27T22:34:23.531Z,99054.81
2023-03-27T22:36:52.238Z,99048.69
2023-03-27T22:39:21.270Z,99049.91
2023-03-27T22:41:50.079Z,99064.09
2023-03-27T22:44:19.060Z,99054.13
2023-03-27T22:46:49.013Z,99055.56
2023-03-27T22:49:17.788Z,99063.25
2023-03-27T22:51:47.924Z,99066.72
2023-03-27T22:54:18.656Z,99066.75
2023-03-27T22:56:48.105Z,99076.59
2023-03-27T22:59:17.415Z,99077.06
2023-03-27T23:01:46.194Z,99074.44
2023-03-27T23:04:14.914Z,99086.41
2023-03-27T23:06:43.688Z,99087.38
2023-03-27T23:09:13.878Z,99082.09
2023-03-27T23:11:43.892Z,99086.13
2023-03-27T23:14:12.906Z,99075.16
2023-03-27T23:16:41.735Z,99086.88
2023-03-27T23:19:10.511Z,99088.31
2023-03-27T23:21:39.587Z,99090.59
2023-03-27T23:24:08.925Z,99087.59
2023-03-27T23:26:38.978Z,99100.19
2023-03-27T23:29:07.975Z,99094.44
2023-03-27T23:31:36.758Z,99079.84
2023-03-27T23:34:05.756Z,99090.53
2023-03-27T23:36:34.483Z,99088.78
2023-03-27T23:39:03.534Z,99075.91
2023-03-27T23:41:32.401Z,99085.59
2023-03-27T23:44:02.606Z,99094.22
2023-03-27T23:46:32.738Z,99095.44
2023-03-27T23:49:01.688Z,99097.63
2023-03-27T23:51:30.571Z,99094.63
2023-03-27T23:53:59.284Z,99092.53
2023-03-27T23:56:28.137Z,99082.94
2023-03-27T23:58:56.891Z,99090.88
